sensor_id;sensor_type;location;lat;lon;timestamp;pressure;altitude;pressure_sealevel;temperature;humidity
74268;BME280;62638;51.362;12.472;2022-09-09T00:02:06;99807.56;;;13.62;89.47
74268;BME280;62638;51.362;12.472;2022-09-09T00:04:40;99811.50;;;13.35;90.98
74268;BME280;62638;51.362;12.472;2022-09-09T00:07:14;99802.81;;;13.17;92.03
74268;BME280;62638;51.362;12.472;2022-09-09T00:12:34;99798.59;;;13.06;93.37
74268;BME280;62638;51.362;12.472;2022-09-09T00:15:13;99802.31;;;12.97;93.45
74268;BME280;62638;51.362;12.472;2022-09-09T00:23:20;99810.06;;;12.84;95.84
74268;BME280;62638;51.362;12.472;2022-09-09T00:28:20;99804.50;;;12.94;95.47
74268;BME280;62638;51.362;12.472;2022-09-09T00:30:47;99799.97;;;12.86;94.98
74268;BME280;62638;51.362;12.472;2022-09-09T00:33:15;99797.28;;;12.78;95.47
74268;BME280;62638;51.362;12.472;2022-09-09T00:35:44;99800.47;;;12.90;95.12
74268;BME280;62638;51.362;12.472;2022-09-09T00:38:29;99800.47;;;12.82;95.11
74268;BME280;62638;51.362;12.472;2022-09-09T00:41:09;99797.13;;;12.71;95.23
74268;BME280;62638;51.362;12.472;2022-09-09T00:43:38;99792.91;;;12.61;96.16
74268;BME280;62638;51.362;12.472;2022-09-09T00:46:26;99789.41;;;12.77;95.26
74268;BME280;62638;51.362;12.472;2022-09-09T00:52:08;99798.50;;;13.47;90.77
74268;BME280;62638;51.362;12.472;2022-09-09T01:02:59;99787.69;;;13.94;88.18
74268;BME280;62638;51.362;12.472;2022-09-09T01:05:43;99790.97;;;14.12;86.98
74268;BME280;62638;51.362;12.472;2022-09-09T01:11:21;99805.53;;;14.26;85.90
74268;BME280;62638;51.362;12.472;2022-09-09T01:13:53;99805.22;;;14.21;86.66
74268;BME280;62638;51.362;12.472;2022-09-09T01:16:24;99803.72;;;14.18;86.59
74268;BME280;62638;51.362;12.472;2022-09-09T01:18:52;99803.72;;;14.18;86.89
74268;BME280;62638;51.362;12.472;2022-09-09T01:21:31;99806.06;;;14.21;86.63
74268;BME280;62638;51.362;12.472;2022-09-09T01:24:36;99807.38;;;14.25;86.39
74268;BME280;62638;51.362;12.472;2022-09-09T01:27:05;99809.13;;;14.18;86.93
74268;BME280;62638;51.362;12.472;2022-09-09T01:29:31;99795.41;;;14.05;87.47
74268;BME280;62638;51.362;12.472;2022-09-09T01:31:59;99799.16;;;13.96;87.83
74268;BME280;62638;51.362;12.472;2022-09-09T01:34:31;99795.03;;;14.08;87.37
74268;BME280;62638;51.362;12.472;2022-09-09T01:37:07;99795.81;;;14.17;86.55
74268;BME280;62638;51.362;12.472;2022-09-09T01:39:35;99797.06;;;14.06;87.23
74268;BME280;62638;51.362;12.472;2022-09-09T01:42:01;99791.72;;;13.98;87.62
74268;BME280;62638;51.362;12.472;2022-09-09T01:44:28;99798.78;;;13.99;87.79
74268;BME280;62638;51.362;12.472;2022-09-09T01:46:54;99794.19;;;14.07;87.36
74268;BME280;62638;51.362;12.472;2022-09-09T01:49:20;99797.72;;;14.08;86.82
74268;BME280;62638;51.362;12.472;2022-09-09T01:51:50;99793.75;;;13.96;87.65
74268;BME280;62638;51.362;12.472;2022-09-09T01:54:17;99798.47;;;13.94;87.62
74268;BME280;62638;51.362;12.472;2022-09-09T02:02:21;99785.19;;;13.92;87.57
74268;BME280;62638;51.362;12.472;2022-09-09T02:05:55;99791.72;;;13.98;87.13
74268;BME280;62638;51.362;12.472;2022-09-09T02:08:08;99795.25;;;13.98;87.10
74268;BME280;62638;51.362;12.472;2022-09-09T02:13:09;99791.81;;;13.82;88.40
74268;BME280;62638;51.362;12.472;2022-09-09T02:15:42;99793.97;;;13.86;88.48
74268;BME280;62638;51.362;12.472;2022-09-09T02:18:11;99792.53;;;13.76;88.72
74268;BME280;62638;51.362;12.472;2022-09-09T02:20:39;99799.22;;;13.80;88.75
74268;BME280;62638;51.362;12.472;2022-09-09T02:23:06;99789.63;;;13.77;88.88
74268;BME280;62638;51.362;12.472;2022-09-09T02:25:35;99797.56;;;13.79;88.76
74268;BME280;62638;51.362;12.472;2022-09-09T02:28:06;99798.03;;;13.82;88.62
74268;BME280;62638;51.362;12.472;2022-09-09T02:30:33;99805.47;;;13.80;89.20
74268;BME280;62638;51.362;12.472;2022-09-09T02:33:02;99807.63;;;13.85;88.83
74268;BME280;62638;51.362;12.472;2022-09-09T02:35:30;99806.75;;;13.92;88.57
74268;BME280;62638;51.362;12.472;2022-09-09T02:37:59;99814.09;;;13.98;87.76
74268;BME280;62638;51.362;12.472;2022-09-09T02:40:26;99809.44;;;13.92;88.38
74268;BME280;62638;51.362;12.472;2022-09-09T02:42:54;99795.34;;;13.82;88.32
74268;BME280;62638;51.362;12.472;2022-09-09T02:45:25;99799.75;;;13.75;88.83
74268;BME280;62638;51.362;12.472;2022-09-09T02:50:55;99794.00;;;13.78;88.63
74268;BME280;62638;51.362;12.472;2022-09-09T02:53:48;99793.91;;;13.72;88.91
74268;BME280;62638;51.362;12.472;2022-09-09T02:56:17;99799.72;;;13.83;87.99
74268;BME280;62638;51.362;12.472;2022-09-09T02:58:44;99797.56;;;13.79;88.19
74268;BME280;62638;51.362;12.472;2022-09-09T03:01:11;99800.88;;;13.81;87.95
74268;BME280;62638;51.362;12.472;2022-09-09T03:03:36;99801.97;;;13.72;88.72
74268;BME280;62638;51.362;12.472;2022-09-09T03:06:02;99803.13;;;13.69;88.46
74268;BME280;62638;51.362;12.472;2022-09-09T03:08:27;99806.66;;;13.70;88.84
74268;BME280;62638;51.362;12.472;2022-09-09T03:10:58;99807.84;;;13.75;88.60
74268;BME280;62638;51.362;12.472;2022-09-09T03:13:26;99808.00;;;13.74;88.36
74268;BME280;62638;51.362;12.472;2022-09-09T03:15:51;99810.34;;;13.77;87.97
74268;BME280;62638;51.362;12.472;2022-09-09T03:18:17;99808.59;;;13.92;87.04
74268;BME280;62638;51.362;12.472;2022-09-09T03:20:42;99814.66;;;13.86;87.25
74268;BME280;62638;51.362;12.472;2022-09-09T03:23:08;99804.56;;;13.88;87.06
74268;BME280;62638;51.362;12.472;2022-09-09T03:25:33;99804.63;;;13.80;87.78
74268;BME280;62638;51.362;12.472;2022-09-09T03:27:58;99807.88;;;13.67;88.10
74268;BME280;62638;51.362;12.472;2022-09-09T03:30:26;99807.88;;;13.67;88.12
74268;BME280;62638;51.362;12.472;2022-09-09T03:32:52;99806.81;;;13.76;88.01
74268;BME280;62638;51.362;12.472;2022-09-09T03:35:18;99806.72;;;13.61;88.26
74268;BME280;62638;51.362;12.472;2022-09-09T03:37:44;99808.81;;;13.82;87.17
74268;BME280;62638;51.362;12.472;2022-09-09T03:40:09;99810.53;;;13.75;87.44
74268;BME280;62638;51.362;12.472;2022-09-09T03:42:35;99810.00;;;13.80;87.28
74268;BME280;62638;51.362;12.472;2022-09-09T03:45:03;99798.06;;;13.74;87.45
74268;BME280;62638;51.362;12.472;2022-09-09T03:47:28;99792.84;;;13.73;87.64
74268;BME280;62638;51.362;12.472;2022-09-09T03:49:54;99798.41;;;13.79;87.26
74268;BME280;62638;51.362;12.472;2022-09-09T03:52:19;99798.19;;;13.81;86.83
74268;BME280;62638;51.362;12.472;2022-09-09T03:54:46;99797.03;;;13.83;87.02
74268;BME280;62638;51.362;12.472;2022-09-09T03:57:13;99794.69;;;13.80;86.92
74268;BME280;62638;51.362;12.472;2022-09-09T03:59:41;99804.09;;;13.84;86.86
74268;BME280;62638;51.362;12.472;2022-09-09T04:02:06;99803.47;;;13.74;87.36
74268;BME280;62638;51.362;12.472;2022-09-09T04:04:32;99798.91;;;13.75;87.25
74268;BME280;62638;51.362;12.472;2022-09-09T04:06:57;99795.53;;;13.73;87.05
74268;BME280;62638;51.362;12.472;2022-09-09T04:09:22;99791.22;;;13.63;87.74
74268;BME280;62638;51.362;12.472;2022-09-09T04:11:48;99797.16;;;13.59;87.97
74268;BME280;62638;51.362;12.472;2022-09-09T04:14:14;99809.75;;;13.58;87.92
74268;BME280;62638;51.362;12.472;2022-09-09T04:16:39;99797.97;;;13.59;87.96
74268;BME280;62638;51.362;12.472;2022-09-09T04:19:08;99805.03;;;13.60;87.49
74268;BME280;62638;51.362;12.472;2022-09-09T04:21:33;99806.22;;;13.58;87.90
74268;BME280;62638;51.362;12.472;2022-09-09T04:23:58;99802.34;;;13.60;87.58
74268;BME280;62638;51.362;12.472;2022-09-09T04:26:24;99802.25;;;13.77;87.03
74268;BME280;62638;51.362;12.472;2022-09-09T04:28:49;99803.97;;;13.70;87.16
74268;BME280;62638;51.362;12.472;2022-09-09T04:31:20;99805.78;;;13.77;86.70
74268;BME280;62638;51.362;12.472;2022-09-09T04:33:48;99807.84;;;13.75;87.10
74268;BME280;62638;51.362;12.472;2022-09-09T04:36:14;99818.41;;;13.77;86.50
74268;BME280;62638;51.362;12.472;2022-09-09T04:38:39;99817.59;;;13.76;86.61
74268;BME280;62638;51.362;12.472;2022-09-09T04:41:05;99824.16;;;13.74;86.88
74268;BME280;62638;51.362;12.472;2022-09-09T04:43:31;99822.97;;;13.68;87.71
74268;BME280;62638;51.362;12.472;2022-09-09T04:45:57;99823.13;;;13.75;87.39
74268;BME280;62638;51.362;12.472;2022-09-09T04:48:24;99816.75;;;13.76;87.44
74268;BME280;62638;51.362;12.472;2022-09-09T04:50:55;99814.38;;;13.73;87.13
74268;BME280;62638;51.362;12.472;2022-09-09T04:53:20;99810.03;;;13.72;87.40
74268;BME280;62638;51.362;12.472;2022-09-09T04:55:47;99816.94;;;13.66;87.69
74268;BME280;62638;51.362;12.472;2022-09-09T04:58:12;99822.00;;;13.61;88.41
74268;BME280;62638;51.362;12.472;2022-09-09T05:00:38;99812.69;;;13.80;87.12
74268;BME280;62638;51.362;12.472;2022-09-09T05:03:04;99810.53;;;13.75;87.48
74268;BME280;62638;51.362;12.472;2022-09-09T05:05:31;99822.28;;;13.74;87.55
74268;BME280;62638;51.362;12.472;2022-09-09T05:10:28;99827.75;;;13.97;85.95
74268;BME280;62638;51.362;12.472;2022-09-09T05:12:54;99831.41;;;14.04;86.13
74268;BME280;62638;51.362;12.472;2022-09-09T05:15:19;99826.97;;;14.19;84.98
74268;BME280;62638;51.362;12.472;2022-09-09T05:17:46;99826.19;;;14.33;83.90
74268;BME280;62638;51.362;12.472;2022-09-09T05:20:11;99839.03;;;14.54;82.71
74268;BME280;62638;51.362;12.472;2022-09-09T05:22:37;99835.94;;;14.65;82.27
74268;BME280;62638;51.362;12.472;2022-09-09T05:25:03;99844.78;;;14.74;82.09
74268;BME280;62638;51.362;12.472;2022-09-09T05:27:28;99831.31;;;14.74;82.94
74268;BME280;62638;51.362;12.472;2022-09-09T05:29:56;99842.75;;;14.76;82.02
74268;BME280;62638;51.362;12.472;2022-09-09T05:32:22;99846.75;;;14.80;81.88
74268;BME280;62638;51.362;12.472;2022-09-09T05:34:47;99849.41;;;14.88;81.63
74268;BME280;62638;51.362;12.472;2022-09-09T05:37:13;99848.88;;;14.92;81.96
74268;BME280;62638;51.362;12.472;2022-09-09T05:39:38;99844.94;;;14.95;81.39
74268;BME280;62638;51.362;12.472;2022-09-09T05:42:04;99845.72;;;15.04;79.96
74268;BME280;62638;51.362;12.472;2022-09-09T05:44:29;99854.28;;;15.07;80.83
74268;BME280;62638;51.362;12.472;2022-09-09T05:46:54;99844.69;;;15.05;81.04
74268;BME280;62638;51.362;12.472;2022-09-09T05:49:20;99847.41;;;15.05;80.84
74268;BME280;62638;51.362;12.472;2022-09-09T05:51:46;99846.00;;;15.09;80.32
74268;BME280;62638;51.362;12.472;2022-09-09T05:54:12;99853.56;;;15.13;80.89
74268;BME280;62638;51.362;12.472;2022-09-09T05:56:40;99849.34;;;15.11;80.21
74268;BME280;62638;51.362;12.472;2022-09-09T05:59:05;99849.19;;;15.12;80.38
74268;BME280;62638;51.362;12.472;2022-09-09T06:01:33;99851.69;;;15.14;80.78
74268;BME280;62638;51.362;12.472;2022-09-09T06:03:59;99849.09;;;15.20;80.72
74268;BME280;62638;51.362;12.472;2022-09-09T06:06:26;99854.31;;;15.22;80.48
74268;BME280;62638;51.362;12.472;2022-09-09T06:08:54;99854.88;;;15.32;80.44
74268;BME280;62638;51.362;12.472;2022-09-09T06:11:29;99852.66;;;15.35;79.94
74268;BME280;62638;51.362;12.472;2022-09-09T06:14:00;99859.38;;;15.39;79.19
74268;BME280;62638;51.362;12.472;2022-09-09T06:16:28;99865.03;;;15.44;80.51
74268;BME280;62638;51.362;12.472;2022-09-09T06:18:55;99856.25;;;15.51;80.30
74268;BME280;62638;51.362;12.472;2022-09-09T06:21:29;99856.34;;;15.57;79.20
74268;BME280;62638;51.362;12.472;2022-09-09T06:23:55;99865.53;;;15.48;79.00
74268;BME280;62638;51.362;12.472;2022-09-09T06:26:25;99862.56;;;15.58;79.34
74268;BME280;62638;51.362;12.472;2022-09-09T06:28:53;99857.66;;;15.61;79.71
74268;BME280;62638;51.362;12.472;2022-09-09T06:31:21;99861.94;;;15.70;79.43
74268;BME280;62638;51.362;12.472;2022-09-09T06:33:47;99864.16;;;15.81;78.59
74268;BME280;62638;51.362;12.472;2022-09-09T06:36:15;99859.88;;;15.87;79.09
74268;BME280;62638;51.362;12.472;2022-09-09T06:38:41;99857.19;;;15.87;78.49
74268;BME280;62638;51.362;12.472;2022-09-09T06:41:08;99857.75;;;15.82;78.47
74268;BME280;62638;51.362;12.472;2022-09-09T06:43:34;99855.78;;;15.91;77.27
74268;BME280;62638;51.362;12.472;2022-09-09T06:48:27;99870.09;;;16.06;77.86
74268;BME280;62638;51.362;12.472;2022-09-09T06:51:09;99867.47;;;16.13;77.20
74268;BME280;62638;51.362;12.472;2022-09-09T06:53:37;99875.38;;;16.14;78.91
74268;BME280;62638;51.362;12.472;2022-09-09T06:56:27;99871.66;;;16.15;77.69
74268;BME280;62638;51.362;12.472;2022-09-09T06:58:55;99870.06;;;16.21;77.27
74268;BME280;62638;51.362;12.472;2022-09-09T07:01:22;99868.25;;;16.43;77.38
74268;BME280;62638;51.362;12.472;2022-09-09T07:03:52;99869.53;;;16.47;76.25
74268;BME280;62638;51.362;12.472;2022-09-09T07:06:20;99875.72;;;16.76;78.02
74268;BME280;62638;51.362;12.472;2022-09-09T07:09:00;99873.19;;;16.96;75.80
74268;BME280;62638;51.362;12.472;2022-09-09T07:11:28;99875.69;;;17.47;74.58
74268;BME280;62638;51.362;12.472;2022-09-09T07:13:54;99877.47;;;17.33;72.87
74268;BME280;62638;51.362;12.472;2022-09-09T07:16:21;99885.81;;;17.10;74.35
74268;BME280;62638;51.362;12.472;2022-09-09T07:18:49;99878.69;;;17.03;74.13
74268;BME280;62638;51.362;12.472;2022-09-09T07:21:16;99883.88;;;17.04;74.05
74268;BME280;62638;51.362;12.472;2022-09-09T07:23:41;99881.88;;;17.13;74.13
74268;BME280;62638;51.362;12.472;2022-09-09T07:26:15;99883.72;;;17.34;73.23
74268;BME280;62638;51.362;12.472;2022-09-09T07:28:42;99878.38;;;17.68;72.85
74268;BME280;62638;51.362;12.472;2022-09-09T07:31:13;99877.19;;;17.77;71.48
74268;BME280;62638;51.362;12.472;2022-09-09T07:33:39;99883.50;;;17.91;70.72
74268;BME280;62638;51.362;12.472;2022-09-09T07:38:48;99870.19;;;18.50;70.05
74268;BME280;62638;51.362;12.472;2022-09-09T07:41:25;99879.06;;;18.72;68.18
74268;BME280;62638;51.362;12.472;2022-09-09T07:43:52;99876.41;;;19.11;67.53
74268;BME280;62638;51.362;12.472;2022-09-09T07:46:20;99871.13;;;18.90;66.51
74268;BME280;62638;51.362;12.472;2022-09-09T07:48:47;99880.50;;;18.74;67.39
74268;BME280;62638;51.362;12.472;2022-09-09T07:51:17;99873.06;;;19.02;65.68
74268;BME280;62638;51.362;12.472;2022-09-09T07:53:45;99880.78;;;19.06;67.23
74268;BME280;62638;51.362;12.472;2022-09-09T07:56:13;99887.44;;;19.16;66.62
74268;BME280;62638;51.362;12.472;2022-09-09T07:58:40;99888.28;;;19.03;66.37
74268;BME280;62638;51.362;12.472;2022-09-09T08:01:11;99887.63;;;18.82;67.51
74268;BME280;62638;51.362;12.472;2022-09-09T08:03:37;99885.78;;;18.89;66.10
74268;BME280;62638;51.362;12.472;2022-09-09T08:06:04;99890.56;;;18.93;66.11
74268;BME280;62638;51.362;12.472;2022-09-09T08:08:31;99899.09;;;18.71;67.86
74268;BME280;62638;51.362;12.472;2022-09-09T08:11:11;99901.22;;;19.80;66.33
74268;BME280;62638;51.362;12.472;2022-09-09T08:13:38;99899.28;;;20.58;62.40
74268;BME280;62638;51.362;12.472;2022-09-09T08:16:11;99890.75;;;20.55;61.27
74268;BME280;62638;51.362;12.472;2022-09-09T08:18:37;99893.03;;;20.58;62.34
74268;BME280;62638;51.362;12.472;2022-09-09T08:21:11;99893.56;;;20.73;62.45
74268;BME280;62638;51.362;12.472;2022-09-09T08:23:41;99899.22;;;20.71;61.32
74268;BME280;62638;51.362;12.472;2022-09-09T08:26:10;99893.63;;;20.98;61.10
74268;BME280;62638;51.362;12.472;2022-09-09T08:28:36;99896.81;;;20.57;62.46
74268;BME280;62638;51.362;12.472;2022-09-09T08:31:11;99890.59;;;20.36;62.08
74268;BME280;62638;51.362;12.472;2022-09-09T08:33:37;99895.16;;;19.91;62.99
74268;BME280;62638;51.362;12.472;2022-09-09T08:36:04;99893.19;;;20.12;64.82
74268;BME280;62638;51.362;12.472;2022-09-09T08:38:30;99893.13;;;20.38;62.91
74268;BME280;62638;51.362;12.472;2022-09-09T08:41:03;99898.19;;;20.72;61.49
74268;BME280;62638;51.362;12.472;2022-09-09T08:43:31;99901.34;;;20.69;63.32
74268;BME280;62638;51.362;12.472;2022-09-09T08:46:09;99897.13;;;20.73;60.34
74268;BME280;62638;51.362;12.472;2022-09-09T08:48:58;99902.72;;;20.47;62.08
74268;BME280;62638;51.362;12.472;2022-09-09T08:51:27;99905.50;;;20.78;62.49
74268;BME280;62638;51.362;12.472;2022-09-09T08:53:56;99908.63;;;21.07;61.10
74268;BME280;62638;51.362;12.472;2022-09-09T08:56:23;99908.19;;;21.16;61.71
74268;BME280;62638;51.362;12.472;2022-09-09T08:58:51;99906.97;;;21.06;59.01
74268;BME280;62638;51.362;12.472;2022-09-09T09:01:38;99901.31;;;21.14;59.33
74268;BME280;62638;51.362;12.472;2022-09-09T09:04:33;99897.97;;;21.37;59.07
74268;BME280;62638;51.362;12.472;2022-09-09T09:12:36;99900.41;;;21.45;58.37
74268;BME280;62638;51.362;12.472;2022-09-09T09:15:12;99905.91;;;21.07;59.80
74268;BME280;62638;51.362;12.472;2022-09-09T09:17:41;99903.59;;;21.42;60.00
74268;BME280;62638;51.362;12.472;2022-09-09T09:20:12;99900.72;;;21.05;59.35
74268;BME280;62638;51.362;12.472;2022-09-09T09:22:47;99905.41;;;21.23;59.52
74268;BME280;62638;51.362;12.472;2022-09-09T09:25:21;99901.25;;;21.45;60.97
74268;BME280;62638;51.362;12.472;2022-09-09T09:28:18;99904.06;;;21.82;58.33
74268;BME280;62638;51.362;12.472;2022-09-09T09:31:04;99904.84;;;22.43;56.36
74268;BME280;62638;51.362;12.472;2022-09-09T09:33:51;99899.84;;;22.22;54.02
74268;BME280;62638;51.362;12.472;2022-09-09T09:36:19;99892.19;;;22.31;54.26
74268;BME280;62638;51.362;12.472;2022-09-09T09:38:52;99887.34;;;22.33;55.40
74268;BME280;62638;51.362;12.472;2022-09-09T09:42:01;99892.28;;;22.42;55.11
74268;BME280;62638;51.362;12.472;2022-09-09T09:44:32;99892.53;;;22.52;54.09
74268;BME280;62638;51.362;12.472;2022-09-09T09:47:26;99893.22;;;22.48;55.72
74268;BME280;62638;51.362;12.472;2022-09-09T09:49:59;99888.19;;;22.15;55.90
74268;BME280;62638;51.362;12.472;2022-09-09T09:52:27;99881.22;;;22.19;56.81
74268;BME280;62638;51.362;12.472;2022-09-09T09:54:54;99892.38;;;21.99;56.54
74268;BME280;62638;51.362;12.472;2022-09-09T09:57:30;99897.06;;;22.10;56.91
74268;BME280;62638;51.362;12.472;2022-09-09T10:00:16;99895.78;;;22.13;57.11
74268;BME280;62638;51.362;12.472;2022-09-09T10:02:44;99898.22;;;21.78;57.54
74268;BME280;62638;51.362;12.472;2022-09-09T10:05:16;99885.72;;;21.89;57.17
74268;BME280;62638;51.362;12.472;2022-09-09T10:07:43;99884.72;;;22.08;58.04
74268;BME280;62638;51.362;12.472;2022-09-09T10:10:15;99884.72;;;22.08;56.34
74268;BME280;62638;51.362;12.472;2022-09-09T10:15:29;99889.94;;;23.17;54.55
74268;BME280;62638;51.362;12.472;2022-09-09T10:18:08;99885.75;;;23.56;54.78
74268;BME280;62638;51.362;12.472;2022-09-09T10:21:02;99887.13;;;23.35;51.61
74268;BME280;62638;51.362;12.472;2022-09-09T10:24:10;99884.06;;;24.02;53.71
74268;BME280;62638;51.362;12.472;2022-09-09T10:26:54;99880.69;;;23.18;52.03
74268;BME280;62638;51.362;12.472;2022-09-09T10:37:54;99873.75;;;23.45;52.65
74268;BME280;62638;51.362;12.472;2022-09-09T10:40:33;99876.47;;;23.92;52.69
74268;BME280;62638;51.362;12.472;2022-09-09T10:45:54;99875.41;;;23.46;52.58
74268;BME280;62638;51.362;12.472;2022-09-09T10:48:35;99863.06;;;24.30;50.85
74268;BME280;62638;51.362;12.472;2022-09-09T10:51:20;99851.41;;;23.72;50.21
74268;BME280;62638;51.362;12.472;2022-09-09T10:53:52;99872.63;;;23.23;51.55
74268;BME280;62638;51.362;12.472;2022-09-09T10:56:20;99861.13;;;23.79;50.22
74268;BME280;62638;51.362;12.472;2022-09-09T10:58:56;99867.56;;;23.85;50.56
74268;BME280;62638;51.362;12.472;2022-09-09T11:01:39;99862.41;;;22.77;53.66
74268;BME280;62638;51.362;12.472;2022-09-09T11:04:19;99858.13;;;23.34;53.07
74268;BME280;62638;51.362;12.472;2022-09-09T11:06:50;99862.25;;;23.02;54.05
74268;BME280;62638;51.362;12.472;2022-09-09T11:09:22;99855.63;;;22.50;54.38
74268;BME280;62638;51.362;12.472;2022-09-09T11:11:56;99856.00;;;22.53;54.39
74268;BME280;62638;51.362;12.472;2022-09-09T11:14:30;99861.09;;;22.50;56.37
74268;BME280;62638;51.362;12.472;2022-09-09T11:17:03;99860.13;;;22.74;54.05
74268;BME280;62638;51.362;12.472;2022-09-09T11:19:36;99861.94;;;22.80;53.85
74268;BME280;62638;51.362;12.472;2022-09-09T11:22:08;99860.78;;;23.76;51.95
74268;BME280;62638;51.362;12.472;2022-09-09T11:32:45;99852.44;;;23.24;51.39
74268;BME280;62638;51.362;12.472;2022-09-09T11:35:57;99844.44;;;23.23;50.03
74268;BME280;62638;51.362;12.472;2022-09-09T11:38:32;99838.84;;;22.65;52.47
74268;BME280;62638;51.362;12.472;2022-09-09T11:41:07;99839.75;;;22.58;53.81
74268;BME280;62638;51.362;12.472;2022-09-09T11:43:45;99839.88;;;22.52;54.57
74268;BME280;62638;51.362;12.472;2022-09-09T11:46:12;99836.59;;;23.15;52.91
74268;BME280;62638;51.362;12.472;2022-09-09T11:48:56;99834.03;;;23.55;47.45
74268;BME280;62638;51.362;12.472;2022-09-09T11:53:54;99830.56;;;23.36;49.01
74268;BME280;62638;51.362;12.472;2022-09-09T11:56:30;99823.25;;;24.23;48.35
74268;BME280;62638;51.362;12.472;2022-09-09T12:06:32;99815.59;;;23.73;48.47
74268;BME280;62638;51.362;12.472;2022-09-09T12:09:06;99831.25;;;23.08;49.98
74268;BME280;62638;51.362;12.472;2022-09-09T12:11:33;99827.44;;;24.02;50.48
74268;BME280;62638;51.362;12.472;2022-09-09T12:13:59;99831.66;;;24.61;47.52
74268;BME280;62638;51.362;12.472;2022-09-09T12:16:36;99824.66;;;24.54;47.50
74268;BME280;62638;51.362;12.472;2022-09-09T12:19:18;99829.22;;;24.20;47.98
74268;BME280;62638;51.362;12.472;2022-09-09T12:22:07;99819.66;;;23.71;49.79
74268;BME280;62638;51.362;12.472;2022-09-09T12:24:46;99818.50;;;23.95;48.54
74268;BME280;62638;51.362;12.472;2022-09-09T12:27:20;99816.88;;;23.82;47.63
74268;BME280;62638;51.362;12.472;2022-09-09T12:29:56;99823.91;;;23.20;48.73
74268;BME280;62638;51.362;12.472;2022-09-09T12:32:25;99819.03;;;23.22;48.91
74268;BME280;62638;51.362;12.472;2022-09-09T12:35:04;99812.63;;;23.28;49.42
74268;BME280;62638;51.362;12.472;2022-09-09T12:37:52;99806.97;;;22.88;49.73
74268;BME280;62638;51.362;12.472;2022-09-09T12:40:24;99813.63;;;22.92;50.39
74268;BME280;62638;51.362;12.472;2022-09-09T12:42:50;99818.38;;;22.74;51.81
74268;BME280;62638;51.362;12.472;2022-09-09T12:45:21;99809.00;;;22.81;51.71
74268;BME280;62638;51.362;12.472;2022-09-09T12:50:21;99795.69;;;24.41;48.22
74268;BME280;62638;51.362;12.472;2022-09-09T12:52:49;99791.34;;;24.17;47.49
74268;BME280;62638;51.362;12.472;2022-09-09T12:55:18;99798.16;;;24.71;47.45
74268;BME280;62638;51.362;12.472;2022-09-09T12:57:48;99791.97;;;24.92;47.02
74268;BME280;62638;51.362;12.472;2022-09-09T13:00:19;99798.13;;;24.54;46.54
74268;BME280;62638;51.362;12.472;2022-09-09T13:03:00;99786.25;;;24.09;47.41
74268;BME280;62638;51.362;12.472;2022-09-09T13:05:28;99790.38;;;23.83;48.38
74268;BME280;62638;51.362;12.472;2022-09-09T13:08:05;99788.63;;;24.17;47.10
74268;BME280;62638;51.362;12.472;2022-09-09T13:10:35;99791.03;;;24.42;44.57
74268;BME280;62638;51.362;12.472;2022-09-09T13:13:04;99792.75;;;24.31;43.81
74268;BME280;62638;51.362;12.472;2022-09-09T13:15:30;99784.28;;;24.32;46.08
74268;BME280;62638;51.362;12.472;2022-09-09T13:17:57;99779.81;;;24.43;46.36
74268;BME280;62638;51.362;12.472;2022-09-09T13:20:26;99769.72;;;24.15;44.52
74268;BME280;62638;51.362;12.472;2022-09-09T13:22:53;99780.97;;;23.79;46.95
74268;BME280;62638;51.362;12.472;2022-09-09T13:25:27;99776.97;;;23.35;47.59
74268;BME280;62638;51.362;12.472;2022-09-09T13:28:01;99777.56;;;22.90;46.13
74268;BME280;62638;51.362;12.472;2022-09-09T13:30:35;99764.13;;;22.77;46.60
74268;BME280;62638;51.362;12.472;2022-09-09T13:35:46;99775.97;;;22.41;46.67
74268;BME280;62638;51.362;12.472;2022-09-09T13:38:14;99783.94;;;22.43;47.99
74268;BME280;62638;51.362;12.472;2022-09-09T13:40:39;99782.44;;;22.29;47.70
74268;BME280;62638;51.362;12.472;2022-09-09T13:43:05;99770.47;;;22.30;48.61
74268;BME280;62638;51.362;12.472;2022-09-09T13:45:30;99777.13;;;22.34;49.26
74268;BME280;62638;51.362;12.472;2022-09-09T13:47:56;99782.44;;;22.29;49.67
74268;BME280;62638;51.362;12.472;2022-09-09T13:50:22;99778.19;;;22.33;50.61
74268;BME280;62638;51.362;12.472;2022-09-09T13:52:53;99774.03;;;22.30;50.35
74268;BME280;62638;51.362;12.472;2022-09-09T13:55:20;99779.22;;;22.20;51.17
74268;BME280;62638;51.362;12.472;2022-09-09T13:57:54;99778.09;;;22.09;51.55
74268;BME280;62638;51.362;12.472;2022-09-09T14:00:20;99784.84;;;22.07;51.42
74268;BME280;62638;51.362;12.472;2022-09-09T14:02:47;99787.06;;;21.98;51.65
74268;BME280;62638;51.362;12.472;2022-09-09T14:05:12;99788.16;;;21.91;51.80
74268;BME280;62638;51.362;12.472;2022-09-09T14:07:39;99798.19;;;21.79;52.84
74268;BME280;62638;51.362;12.472;2022-09-09T14:10:05;99818.41;;;21.28;53.46
74268;BME280;62638;51.362;12.472;2022-09-09T14:12:31;99832.25;;;19.68;60.40
74268;BME280;62638;51.362;12.472;2022-09-09T14:14:56;99861.13;;;17.82;68.01
74268;BME280;62638;51.362;12.472;2022-09-09T14:17:21;99861.13;;;17.20;71.57
74268;BME280;62638;51.362;12.472;2022-09-09T14:19:47;99854.25;;;16.75;76.14
74268;BME280;62638;51.362;12.472;2022-09-09T14:22:13;99829.47;;;16.35;76.50
74268;BME280;62638;51.362;12.472;2022-09-09T14:24:38;99816.03;;;16.21;80.57
74268;BME280;62638;51.362;12.472;2022-09-09T14:27:04;99798.09;;;16.34;80.96
74268;BME280;62638;51.362;12.472;2022-09-09T14:29:29;99797.25;;;16.55;82.23
74268;BME280;62638;51.362;12.472;2022-09-09T14:31:54;99793.06;;;16.74;80.90
74268;BME280;62638;51.362;12.472;2022-09-09T14:34:19;99771.16;;;16.62;85.95
74268;BME280;62638;51.362;12.472;2022-09-09T14:36:45;99766.84;;;16.96;88.70